createdAt,value
2023-01-30T00:01:02.249Z,-1.73
2023-01-30T00:03:28.939Z,-1.55
2023-01-30T00:05:55.638Z,-1.71
2023-01-30T00:08:22.379Z,-2.19
2023-01-30T00:10:49.004Z,-1.93
2023-01-30T00:13:15.771Z,-1.79
2023-01-30T00:15:42.501Z,-1.86
2023-01-30T00:18:09.288Z,-2.09
2023-01-30T00:20:36.039Z,-2.40
2023-01-30T00:23:02.675Z,-2.25
2023-01-30T00:25:29.687Z,-2.27
2023-01-30T00:27:56.708Z,-2.26
2023-01-30T00:30:23.420Z,-2.36
2023-01-30T00:32:54.761Z,-2.11
2023-01-30T00:35:21.751Z,-2.05
2023-01-30T00:37:48.423Z,-2.16
2023-01-30T00:40:15.105Z,-2.43
2023-01-30T00:43:00.158Z,-2.21
2023-01-30T00:45:45.727Z,-2.17
2023-01-30T00:48:12.871Z,-1.82
2023-01-30T00:50:42.549Z,-2.07
2023-01-30T00:53:10.991Z,-2.45
2023-01-30T00:55:37.779Z,-2.42
2023-01-30T00:58:04.481Z,-2.29
2023-01-30T01:00:31.238Z,-2.35
2023-01-30T01:02:58.001Z,-2.71
2023-01-30T01:05:24.736Z,-2.22
2023-01-30T01:07:51.400Z,-2.06
2023-01-30T01:10:18.260Z,-2.42
2023-01-30T01:12:48.982Z,-2.51
2023-01-30T01:15:15.826Z,-2.25
2023-01-30T01:17:42.686Z,-2.28
2023-01-30T01:20:10.169Z,-2.19
2023-01-30T01:22:36.865Z,-1.89
2023-01-30T01:25:03.783Z,-1.96
2023-01-30T01:27:30.408Z,-1.98
2023-01-30T01:29:57.028Z,-2.06
2023-01-30T01:32:23.768Z,-1.80
2023-01-30T01:34:50.370Z,-1.93
2023-01-30T01:37:17.031Z,-1.88
2023-01-30T01:40:02.442Z,-1.68
2023-01-30T01:42:34.519Z,-1.88
2023-01-30T01:45:13.193Z,-2.06
2023-01-30T01:47:41.822Z,-2.34
2023-01-30T01:50:19.051Z,-1.93
2023-01-30T01:52:45.792Z,-2.02
2023-01-30T01:55:12.486Z,-1.75
2023-01-30T01:57:44.361Z,-1.52
2023-01-30T02:00:15.699Z,-1.58
2023-01-30T02:02:44.150Z,-1.57
2023-01-30T02:05:12.787Z,-1.76
2023-01-30T02:07:43.671Z,-1.67
2023-01-30T02:10:17.925Z,-1.57
2023-01-30T02:12:44.532Z,-1.33
2023-01-30T02:15:11.433Z,-1.76
2023-01-30T02:17:38.135Z,-1.78
2023-01-30T02:20:11.820Z,-1.91
2023-01-30T02:22:44.317Z,-1.61
2023-01-30T02:25:52.034Z,-1.72
2023-01-30T02:28:18.610Z,-1.96
2023-01-30T02:31:10.650Z,-1.86
2023-01-30T02:33:43.590Z,-2.02
2023-01-30T02:36:26.932Z,-2.08
2023-01-30T02:39:07.273Z,-1.67
2023-01-30T02:41:48.549Z,-2.21
2023-01-30T02:44:27.972Z,-2.25
2023-01-30T02:47:05.295Z,-2.17
2023-01-30T02:49:38.511Z,-1.98
2023-01-30T02:52:05.298Z,-2.03
2023-01-30T02:54:32.139Z,-1.59
2023-01-30T02:56:59.025Z,-1.98
2023-01-30T02:59:25.595Z,-1.82
2023-01-30T03:02:13.912Z,-1.89
2023-01-30T03:04:58.577Z,-1.67
2023-01-30T03:07:46.587Z,-1.79
2023-01-30T03:10:31.636Z,-1.91
2023-01-30T03:13:16.548Z,-2.07
2023-01-30T03:16:28.089Z,-2.19
2023-01-30T03:18:55.081Z,-2.16
2023-01-30T03:21:21.715Z,-2.11
2023-01-30T03:23:48.348Z,-2.34
2023-01-30T03:26:19.465Z,-1.94
2023-01-30T03:28:47.061Z,-2.01
2023-01-30T03:31:13.755Z,-1.87
2023-01-30T03:33:40.480Z,-1.58
2023-01-30T03:36:07.321Z,-1.76
2023-01-30T03:38:34.894Z,-1.85
2023-01-30T03:41:02.257Z,-1.77
2023-01-30T03:43:28.972Z,-2.30
2023-01-30T03:45:55.677Z,-2.30
2023-01-30T03:48:22.335Z,-2.29
2023-01-30T03:50:49.000Z,-2.32
2023-01-30T03:53:15.732Z,-2.48
2023-01-30T03:55:44.654Z,-2.45
2023-01-30T03:58:11.360Z,-2.01
2023-01-30T04:00:38.003Z,-1.88
2023-01-30T04:03:04.743Z,-1.91
2023-01-30T04:05:31.432Z,-2.00
2023-01-30T04:07:58.214Z,-1.96
2023-01-30T04:10:25.607Z,-2.21
2023-01-30T04:12:52.357Z,-1.88
2023-01-30T04:15:19.308Z,-1.86
2023-01-30T04:17:47.907Z,-1.98
2023-01-30T04:20:14.711Z,-1.84
2023-01-30T04:22:41.361Z,-1.73
2023-01-30T04:25:08.413Z,-1.70
2023-01-30T04:27:35.125Z,-1.44
2023-01-30T04:30:01.798Z,-1.83
2023-01-30T04:32:28.446Z,-1.61
2023-01-30T04:34:55.069Z,-1.62
2023-01-30T04:37:21.791Z,-1.61
2023-01-30T04:39:48.464Z,-1.31
2023-01-30T04:42:15.237Z,-1.00
2023-01-30T04:44:41.844Z,-0.96
2023-01-30T04:47:08.422Z,-0.82
2023-01-30T04:49:35.192Z,-1.27
2023-01-30T04:52:01.924Z,-1.29
2023-01-30T04:54:28.644Z,-1.44
2023-01-30T04:56:55.291Z,-1.02
2023-01-30T04:59:21.958Z,-0.82
2023-01-30T05:01:48.681Z,-1.04
2023-01-30T05:04:15.301Z,-1.35
2023-01-30T05:06:41.963Z,-1.51
2023-01-30T05:09:08.810Z,-1.67
2023-01-30T05:11:35.533Z,-1.54
2023-01-30T05:14:02.216Z,-1.69
2023-01-30T05:16:29.249Z,-1.36
2023-01-30T05:18:55.891Z,-1.46
2023-01-30T05:21:25.889Z,-1.73
2023-01-30T05:23:55.299Z,-1.51
2023-01-30T05:26:22.128Z,-1.45
2023-01-30T05:28:55.457Z,-1.41
2023-01-30T05:31:22.292Z,-1.54
2023-01-30T05:33:49.547Z,-1.53
2023-01-30T05:36:17.795Z,-1.68
2023-01-30T05:38:44.691Z,-1.59
2023-01-30T05:41:12.019Z,-1.67
2023-01-30T05:43:38.682Z,-1.55
2023-01-30T05:46:05.779Z,-1.65
2023-01-30T05:48:32.944Z,-1.65
2023-01-30T05:50:59.700Z,-1.61
2023-01-30T05:53:31.932Z,-1.61
2023-01-30T05:55:59.738Z,-1.44
2023-01-30T05:58:26.982Z,-1.63
2023-01-30T06:00:53.700Z,-1.42
2023-01-30T06:03:20.510Z,-1.56
2023-01-30T06:05:47.258Z,-1.67
2023-01-30T06:08:14.006Z,-1.73
2023-01-30T06:10:40.675Z,-1.38
2023-01-30T06:13:07.348Z,-1.39
2023-01-30T06:15:34.024Z,-1.88
2023-01-30T06:18:00.713Z,-1.57
2023-01-30T06:20:27.375Z,-1.61
2023-01-30T06:22:54.040Z,-1.72
2023-01-30T06:25:20.955Z,-1.47
2023-01-30T06:27:48.857Z,-1.32
2023-01-30T06:30:15.799Z,-1.23
2023-01-30T06:32:42.890Z,-1.41
2023-01-30T06:35:09.880Z,-1.13
2023-01-30T06:37:36.534Z,-0.89
2023-01-30T06:40:03.249Z,-1.14
2023-01-30T06:42:29.907Z,-1.16
2023-01-30T06:44:56.551Z,-1.13
2023-01-30T06:47:23.444Z,-0.97
2023-01-30T06:49:50.219Z,-0.91
2023-01-30T06:52:17.016Z,-0.94
2023-01-30T06:54:43.643Z,-0.59
2023-01-30T06:57:10.307Z,-0.73
2023-01-30T06:59:37.024Z,-0.65
2023-01-30T07:02:03.730Z,-0.56
2023-01-30T07:04:30.473Z,-0.51
2023-01-30T07:06:57.291Z,-0.65
2023-01-30T07:09:23.877Z,-0.57
2023-01-30T07:11:51.054Z,-0.60
2023-01-30T07:14:17.816Z,-0.76
2023-01-30T07:16:44.462Z,-0.91
2023-01-30T07:19:11.180Z,-0.94
2023-01-30T07:21:37.866Z,-0.67
2023-01-30T07:24:04.799Z,-0.46
2023-01-30T07:26:31.571Z,-0.64
2023-01-30T07:28:58.428Z,-0.76
2023-01-30T07:31:25.147Z,-0.73
2023-01-30T07:33:51.823Z,-0.77
2023-01-30T07:36:18.573Z,-0.70
2023-01-30T07:38:45.222Z,-0.79
2023-01-30T07:41:11.947Z,-0.58
2023-01-30T07:43:38.636Z,-0.53
2023-01-30T07:46:05.532Z,-0.54
2023-01-30T07:48:32.211Z,-0.57
2023-01-30T07:50:58.920Z,-0.54
2023-01-30T07:53:25.577Z,-0.66
2023-01-30T07:55:52.350Z,-0.64
2023-01-30T07:58:19.036Z,-0.75
2023-01-30T08:00:45.708Z,-0.52
2023-01-30T08:03:15.759Z,-0.45
2023-01-30T08:05:42.669Z,-0.46
2023-01-30T08:08:09.353Z,-0.65
2023-01-30T08:10:35.991Z,-0.52
2023-01-30T08:13:02.772Z,-0.49
2023-01-30T08:15:31.580Z,-0.52
2023-01-30T08:17:58.266Z,-0.63
2023-01-30T08:20:25.364Z,-0.71
2023-01-30T08:22:52.125Z,-0.59
2023-01-30T08:25:18.865Z,-0.39
2023-01-30T08:27:45.507Z,-0.51
2023-01-30T08:30:12.838Z,-0.43
2023-01-30T08:32:39.491Z,-0.60
2023-01-30T08:35:06.616Z,-0.36
2023-01-30T08:37:33.383Z,-0.42
2023-01-30T08:40:00.140Z,-0.33
2023-01-30T08:42:26.804Z,-0.13
2023-01-30T08:44:53.463Z,-0.20
2023-01-30T08:47:20.170Z,-0.28
2023-01-30T08:49:46.787Z,-0.24
2023-01-30T08:52:13.392Z,-0.77
2023-01-30T08:54:40.011Z,-0.85
2023-01-30T08:57:06.761Z,-0.58
2023-01-30T08:59:33.470Z,-1.30
2023-01-30T09:02:00.249Z,-1.33
2023-01-30T09:04:29.085Z,-1.16
2023-01-30T09:06:55.717Z,-1.45
2023-01-30T09:09:22.336Z,-0.92
2023-01-30T09:11:48.982Z,-0.82
2023-01-30T09:14:19.660Z,-0.54
2023-01-30T09:16:55.628Z,-0.68
2023-01-30T09:19:26.660Z,-0.74
2023-01-30T09:21:53.481Z,-0.80
2023-01-30T09:24:20.893Z,-0.74
2023-01-30T09:26:48.195Z,-0.86
2023-01-30T09:29:15.036Z,-0.88
2023-01-30T09:31:41.867Z,-0.79
2023-01-30T09:34:08.578Z,-0.94
2023-01-30T09:36:35.192Z,-0.92
2023-01-30T09:39:01.901Z,-0.60
2023-01-30T09:41:42.797Z,-1.10
2023-01-30T09:44:40.601Z,-0.90
2023-01-30T09:47:14.387Z,-0.75
2023-01-30T09:49:45.023Z,-0.91
2023-01-30T09:52:24.604Z,-0.76
2023-01-30T09:54:51.212Z,-0.72
2023-01-30T09:57:20.727Z,-0.45
2023-01-30T09:59:55.183Z,-0.47
2023-01-30T10:02:29.027Z,-0.97
2023-01-30T10:05:01.872Z,-1.33
2023-01-30T10:07:41.953Z,-0.66
2023-01-30T10:10:11.312Z,-0.75
2023-01-30T10:12:46.480Z,-0.56
2023-01-30T10:15:31.856Z,-1.14
2023-01-30T10:18:13.897Z,-1.00
2023-01-30T10:21:09.342Z,-0.78
2023-01-30T10:24:03.825Z,-1.27
2023-01-30T10:26:31.373Z,-1.15
2023-01-30T10:29:07.294Z,-0.91
2023-01-30T10:31:56.876Z,-1.00
2023-01-30T10:34:34.776Z,-1.01
2023-01-30T10:37:24.932Z,-0.89
2023-01-30T10:40:28.914Z,-1.20
2023-01-30T10:43:16.794Z,-1.23
2023-01-30T10:46:11.120Z,-1.02
2023-01-30T10:48:46.912Z,-1.36
2023-01-30T10:51:32.725Z,-1.25
2023-01-30T10:54:11.983Z,-0.73
2023-01-30T10:56:56.774Z,-0.74
2023-01-30T10:59:47.970Z,-1.00
2023-01-30T11:02:34.032Z,-0.77
2023-01-30T11:05:04.671Z,-0.94
2023-01-30T11:07:32.151Z,-1.19
2023-01-30T11:09:59.349Z,-1.07
2023-01-30T11:12:26.149Z,-1.07
2023-01-30T11:14:59.851Z,-0.95
2023-01-30T11:17:32.535Z,-0.90
2023-01-30T11:20:02.746Z,-1.15
2023-01-30T11:22:29.483Z,-1.19
2023-01-30T11:25:25.587Z,-0.66
2023-01-30T11:28:02.673Z,-1.23
2023-01-30T11:30:30.717Z,-1.00
2023-01-30T11:33:12.600Z,-0.71
2023-01-30T11:35:56.814Z,-0.86
2023-01-30T11:38:25.534Z,-0.81
2023-01-30T11:41:04.341Z,-0.73
2023-01-30T11:43:32.216Z,-0.97
2023-01-30T11:45:59.002Z,-0.99
2023-01-30T11:48:34.025Z,-0.88
2023-01-30T11:51:17.423Z,-0.57
2023-01-30T11:53:48.664Z,-0.75
2023-01-30T11:56:24.307Z,-0.99
2023-01-30T11:58:58.898Z,-0.78
2023-01-30T12:01:30.213Z,-1.00
2023-01-30T12:03:57.632Z,-0.64
2023-01-30T12:06:30.861Z,-0.68
2023-01-30T12:08:58.011Z,-0.76
2023-01-30T12:11:28.754Z,-0.50
2023-01-30T12:13:58.023Z,-0.66
2023-01-30T12:16:32.299Z,-0.44
2023-01-30T12:19:38.459Z,-0.51
2023-01-30T12:22:11.017Z,-0.52
2023-01-30T12:24:59.249Z,-0.61
2023-01-30T12:27:47.358Z,-1.24
2023-01-30T12:30:35.111Z,-1.32
2023-01-30T12:33:04.260Z,-1.05
2023-01-30T12:36:06.717Z,-0.50
2023-01-30T12:39:00.828Z,-0.75
2023-01-30T12:41:36.732Z,-1.10
2023-01-30T12:44:12.576Z,-0.97
2023-01-30T12:46:57.580Z,-0.52
2023-01-30T12:49:33.181Z,-0.35
2023-01-30T12:52:27.523Z,-0.43
2023-01-30T12:54:57.250Z,-0.32
2023-01-30T12:57:34.353Z,-0.44
2023-01-30T13:00:16.597Z,-0.45
2023-01-30T13:02:58.278Z,-0.51
2023-01-30T13:05:42.503Z,-0.47
2023-01-30T13:08:27.943Z,-0.15
2023-01-30T13:11:17.165Z,-0.09
2023-01-30T13:13:56.026Z,-0.71
2023-01-30T13:16:49.191Z,-0.41
2023-01-30T13:19:23.096Z,-0.42
2023-01-30T13:22:13.548Z,-0.23
2023-01-30T13:24:58.767Z,-0.32
2023-01-30T13:27:25.600Z,-0.46
2023-01-30T13:29:52.352Z,-0.03
2023-01-30T13:32:43.404Z,-0.64
2023-01-30T13:35:20.960Z,-0.52
2023-01-30T13:37:48.522Z,-0.90
2023-01-30T13:40:45.367Z,-1.07
2023-01-30T13:43:22.897Z,-0.81
2023-01-30T13:45:50.420Z,-1.29
2023-01-30T13:48:46.172Z,-1.35
2023-01-30T13:51:12.714Z,-1.15
2023-01-30T13:54:17.159Z,-1.06
2023-01-30T13:57:00.946Z,-1.38
2023-01-30T13:59:58.464Z,-1.27
2023-01-30T14:02:25.466Z,-1.08
2023-01-30T14:04:53.690Z,-1.50
2023-01-30T14:07:34.087Z,-1.63
2023-01-30T14:10:12.149Z,-1.55
2023-01-30T14:12:49.802Z,-1.36
2023-01-30T14:15:16.960Z,-1.28
2023-01-30T14:18:05.981Z,-1.28
2023-01-30T14:20:36.385Z,-1.37
2023-01-30T14:23:06.538Z,-1.37
2023-01-30T14:25:35.376Z,-0.64
2023-01-30T14:28:02.652Z,-1.17
2023-01-30T14:30:32.324Z,-0.69
2023-01-30T14:33:00.285Z,-0.97
2023-01-30T14:35:30.944Z,-0.29
2023-01-30T14:38:06.629Z,-0.42
2023-01-30T14:40:34.724Z,-1.01
2023-01-30T14:43:42.774Z,-0.99
2023-01-30T14:46:19.006Z,-0.84
2023-01-30T14:48:45.775Z,-0.79
2023-01-30T14:51:22.788Z,-0.59
2023-01-30T14:53:54.335Z,-0.95
2023-01-30T14:56:45.370Z,-0.45
2023-01-30T14:59:34.022Z,-0.87
2023-01-30T15:02:05.297Z,-0.66
2023-01-30T15:04:47.776Z,-0.68
2023-01-30T15:07:46.174Z,-0.81
2023-01-30T15:10:52.831Z,-0.91
2023-01-30T15:13:23.341Z,-1.21
2023-01-30T15:16:19.110Z,-1.69
2023-01-30T15:19:05.388Z,-1.49
2023-01-30T15:22:04.087Z,-1.63
2023-01-30T15:25:07.600Z,-1.33
2023-01-30T15:28:19.089Z,-1.37
2023-01-30T15:30:56.988Z,-1.31
2023-01-30T15:33:30.871Z,-1.29
2023-01-30T15:35:58.443Z,-1.49
2023-01-30T15:38:26.607Z,-1.41
2023-01-30T15:40:59.288Z,-1.16
2023-01-30T15:43:53.703Z,-1.18
2023-01-30T15:46:23.815Z,-1.09
2023-01-30T15:48:56.331Z,-1.07
2023-01-30T15:51:27.322Z,-1.11
2023-01-30T15:53:54.151Z,-1.06
2023-01-30T15:56:23.125Z,-1.05
2023-01-30T15:58:49.783Z,-1.07
2023-01-30T16:01:22.597Z,-1.06
2023-01-30T16:03:53.449Z,-1.22
2023-01-30T16:06:30.667Z,-1.09
2023-01-30T16:09:02.285Z,-1.20
2023-01-30T16:11:38.924Z,-1.51
2023-01-30T16:14:06.177Z,-1.79
2023-01-30T16:16:32.901Z,-1.67
2023-01-30T16:19:01.142Z,-2.00
2023-01-30T16:21:34.255Z,-2.03
2023-01-30T16:24:13.341Z,-1.66
2023-01-30T16:26:42.331Z,-1.75
2023-01-30T16:29:16.478Z,-2.22
2023-01-30T16:31:46.525Z,-1.93
2023-01-30T16:34:32.413Z,-1.66
2023-01-30T16:37:19.952Z,-1.63
2023-01-30T16:40:06.684Z,-1.50
2023-01-30T16:42:33.288Z,-1.65
2023-01-30T16:45:35.597Z,-1.68
2023-01-30T16:48:17.691Z,-1.79
2023-01-30T16:50:47.746Z,-1.77
2023-01-30T16:53:24.817Z,-1.86
2023-01-30T16:56:10.866Z,-1.86
2023-01-30T16:58:37.543Z,-1.97
2023-01-30T17:01:08.104Z,-1.92
2023-01-30T17:03:37.025Z,-1.94
2023-01-30T17:06:12.404Z,-1.85
2023-01-30T17:08:55.719Z,-1.83
2023-01-30T17:11:41.065Z,-1.86
2023-01-30T17:14:24.537Z,-1.96
2023-01-30T17:17:03.882Z,-2.04
2023-01-30T17:19:30.850Z,-2.33
2023-01-30T17:21:58.035Z,-2.28
2023-01-30T17:24:25.217Z,-2.30
2023-01-30T17:26:53.940Z,-2.18
2023-01-30T17:29:41.269Z,-2.07
2023-01-30T17:32:13.290Z,-2.09
2023-01-30T17:34:41.303Z,-1.94
2023-01-30T17:37:18.551Z,-2.16
2023-01-30T17:39:45.410Z,-2.23
2023-01-30T17:42:13.705Z,-2.35
2023-01-30T17:44:40.828Z,-2.48
2023-01-30T17:47:12.170Z,-2.49
2023-01-30T17:49:38.951Z,-2.60
2023-01-30T17:52:05.733Z,-2.61
2023-01-30T17:54:32.308Z,-2.58
2023-01-30T17:57:03.594Z,-2.55
2023-01-30T17:59:31.195Z,-2.63
2023-01-30T18:01:58.013Z,-2.92
2023-01-30T18:04:24.697Z,-2.81
2023-01-30T18:06:56.810Z,-2.48
2023-01-30T18:09:24.342Z,-2.72
2023-01-30T18:11:51.017Z,-2.62
2023-01-30T18:14:17.687Z,-2.88
2023-01-30T18:16:44.388Z,-2.69
2023-01-30T18:19:15.656Z,-2.36
2023-01-30T18:21:45.651Z,-2.22
2023-01-30T18:24:13.142Z,-2.10
2023-01-30T18:26:40.553Z,-2.25
2023-01-30T18:29:09.695Z,-2.09
2023-01-30T18:31:36.692Z,-2.18
2023-01-30T18:34:03.414Z,-2.04
2023-01-30T18:36:30.327Z,-2.04
2023-01-30T18:38:57.034Z,-2.12
2023-01-30T18:41:24.253Z,-2.23
2023-01-30T18:43:58.201Z,-2.14
2023-01-30T18:46:25.114Z,-2.21
2023-01-30T18:48:51.848Z,-2.14
2023-01-30T18:51:22.875Z,-2.04
2023-01-30T18:53:51.084Z,-2.11
2023-01-30T18:56:22.818Z,-2.05
2023-01-30T18:58:56.462Z,-2.08
2023-01-30T19:01:23.903Z,-2.06
2023-01-30T19:03:54.274Z,-1.76
2023-01-30T19:06:20.976Z,-1.65
2023-01-30T19:08:47.559Z,-1.66
2023-01-30T19:11:33.932Z,-1.47
2023-01-30T19:14:00.765Z,-1.66
2023-01-30T19:16:28.894Z,-1.35
2023-01-30T19:18:55.830Z,-1.02
2023-01-30T19:21:22.548Z,-1.36
2023-01-30T19:23:49.372Z,-1.64
2023-01-30T19:26:16.624Z,-1.98
2023-01-30T19:28:44.718Z,-2.23
2023-01-30T19:31:13.974Z,-2.00
2023-01-30T19:33:41.395Z,-2.10
2023-01-30T19:36:15.786Z,-1.94
2023-01-30T19:38:42.909Z,-1.91
2023-01-30T19:41:13.687Z,-1.80
2023-01-30T19:43:40.425Z,-1.52
2023-01-30T19:46:07.232Z,-1.64
2023-01-30T19:48:33.946Z,-1.81
2023-01-30T19:51:05.502Z,-1.60
2023-01-30T19:53:33.484Z,-1.50
2023-01-30T19:56:00.189Z,-1.60
2023-01-30T19:58:26.953Z,-1.13
2023-01-30T20:00:53.746Z,-1.14
2023-01-30T20:03:20.375Z,-0.97
2023-01-30T20:05:47.003Z,-1.35
2023-01-30T20:08:25.521Z,-1.92
2023-01-30T20:11:02.002Z,-2.05
2023-01-30T20:13:28.715Z,-1.89
2023-01-30T20:15:56.618Z,-1.71
2023-01-30T20:18:23.337Z,-1.64
2023-01-30T20:20:49.932Z,-1.89
2023-01-30T20:23:17.550Z,-1.93
2023-01-30T20:25:46.533Z,-2.08
2023-01-30T20:28:13.211Z,-1.78
2023-01-30T20:30:40.291Z,-1.63
2023-01-30T20:33:07.041Z,-1.62
2023-01-30T20:35:34.749Z,-1.60
2023-01-30T20:38:02.303Z,-1.67
2023-01-30T20:40:28.937Z,-1.70
2023-01-30T20:42:55.524Z,-1.50
2023-01-30T20:45:22.222Z,-1.52
2023-01-30T20:47:48.865Z,-1.48
2023-01-30T20:50:15.855Z,-1.36
2023-01-30T20:52:43.075Z,-1.44
2023-01-30T20:55:09.845Z,-1.34
2023-01-30T20:57:37.262Z,-1.29
2023-01-30T21:00:05.600Z,-1.35
2023-01-30T21:02:32.180Z,-1.34
2023-01-30T21:04:58.992Z,-1.28
2023-01-30T21:07:25.595Z,-1.12
2023-01-30T21:09:52.264Z,-1.08
2023-01-30T21:12:20.023Z,-1.05
2023-01-30T21:14:46.631Z,-1.01
2023-01-30T21:17:13.386Z,-1.13
2023-01-30T21:19:41.731Z,-1.03
2023-01-30T21:22:11.029Z,-1.16
2023-01-30T21:24:39.464Z,-1.35
2023-01-30T21:27:06.267Z,-1.31
2023-01-30T21:29:33.111Z,-1.23
2023-01-30T21:31:59.912Z,-1.27
2023-01-30T21:34:26.773Z,-1.30
2023-01-30T21:37:12.214Z,-1.19
2023-01-30T21:39:57.697Z,-1.14
2023-01-30T21:42:43.245Z,-1.13
2023-01-30T21:45:09.978Z,-1.06
2023-01-30T21:47:37.037Z,-1.20
2023-01-30T21:50:04.180Z,-1.16
2023-01-30T21:52:32.499Z,-1.20
2023-01-30T21:54:59.116Z,-1.16
2023-01-30T21:57:25.814Z,-1.14
2023-01-30T21:59:52.587Z,-1.13
2023-01-30T22:02:19.364Z,-1.14
2023-01-30T22:04:45.995Z,-1.18
2023-01-30T22:07:12.720Z,-1.13
2023-01-30T22:09:39.712Z,-1.01
2023-01-30T22:12:06.459Z,-0.91
2023-01-30T22:14:35.327Z,-1.15
2023-01-30T22:17:02.283Z,-1.19
2023-01-30T22:19:35.234Z,-1.00
2023-01-30T22:22:02.697Z,-1.23
2023-01-30T22:24:29.384Z,-1.23
2023-01-30T22:26:56.012Z,-1.17
2023-01-30T22:29:22.718Z,-0.98
2023-01-30T22:31:49.423Z,-0.97
2023-01-30T22:34:16.120Z,-0.99
2023-01-30T22:36:42.773Z,-1.11
2023-01-30T22:39:09.667Z,-0.91
2023-01-30T22:41:36.501Z,-0.74
2023-01-30T22:44:04.245Z,-0.66
2023-01-30T22:46:36.506Z,-0.67
2023-01-30T22:49:04.265Z,-0.74
2023-01-30T22:51:35.827Z,-0.80
2023-01-30T22:54:04.765Z,-0.79
2023-01-30T22:56:43.835Z,-0.64
2023-01-30T22:59:10.639Z,-0.41
2023-01-30T23:01:41.916Z,-0.21
2023-01-30T23:04:13.712Z,-0.23
2023-01-30T23:06:40.681Z,-0.39
2023-01-30T23:09:08.317Z,-0.44
2023-01-30T23:11:37.292Z,-0.51
2023-01-30T23:14:14.873Z,-0.50
2023-01-30T23:16:42.976Z,-0.80
2023-01-30T23:19:10.119Z,-0.75
2023-01-30T23:21:41.758Z,-0.73
2023-01-30T23:24:18.856Z,-0.91
2023-01-30T23:26:47.251Z,-0.96
2023-01-30T23:29:15.836Z,-1.01
2023-01-30T23:31:43.065Z,-1.38
2023-01-30T23:34:17.037Z,-1.52
2023-01-30T23:36:43.696Z,-1.45
2023-01-30T23:39:11.921Z,-1.48
2023-01-30T23:41:38.873Z,-1.47
2023-01-30T23:44:05.698Z,-1.61
2023-01-30T23:46:36.795Z,-1.55
2023-01-30T23:49:05.250Z,-1.40
2023-01-30T23:51:32.645Z,-1.49
2023-01-30T23:53:59.401Z,-1.93
2023-01-30T23:56:27.490Z,-1.67
2023-01-30T23:58:54.128Z,-1.78
